sensor_id;sensor_type;location;lat;lon;timestamp;P1;durP1;ratioP1;P2;durP2;ratioP2
49614;SDS011;35517;45.272;9.984;2023-01-16T00:02:16;87.30;;;52.35;;
49614;SDS011;35517;45.272;9.984;2023-01-16T00:04:43;90.82;;;55.70;;
49614;SDS011;35517;45.272;9.984;2023-01-16T00:07:09;90.82;;;54.53;;
49614;SDS011;35517;45.272;9.984;2023-01-16T00:09:36;92.10;;;52.33;;
49614;SDS011;35517;45.272;9.984;2023-01-16T00:12:02;90.03;;;52.58;;
49614;SDS011;35517;45.272;9.984;2023-01-16T00:14:29;90.05;;;53.70;;
49614;SDS011;35517;45.272;9.984;2023-01-16T00:16:57;86.13;;;52.97;;
49614;SDS011;35517;45.272;9.984;2023-01-16T00:19:24;92.93;;;52.75;;
49614;SDS011;35517;45.272;9.984;2023-01-16T00:21:50;89.63;;;55.90;;
49614;SDS011;35517;45.272;9.984;2023-01-16T00:24:17;93.22;;;54.72;;
49614;SDS011;35517;45.272;9.984;2023-01-16T00:26:43;91.65;;;56.38;;
49614;SDS011;35517;45.272;9.984;2023-01-16T00:29:10;92.32;;;56.47;;
49614;SDS011;35517;45.272;9.984;2023-01-16T00:31:37;93.43;;;52.85;;
49614;SDS011;35517;45.272;9.984;2023-01-16T00:34:03;86.80;;;53.60;;
49614;SDS011;35517;45.272;9.984;2023-01-16T00:36:30;93.85;;;53.60;;
49614;SDS011;35517;45.272;9.984;2023-01-16T00:38:56;88.50;;;52.35;;
49614;SDS011;35517;45.272;9.984;2023-01-16T00:41:23;90.72;;;54.75;;
49614;SDS011;35517;45.272;9.984;2023-01-16T00:43:49;90.68;;;56.83;;
49614;SDS011;35517;45.272;9.984;2023-01-16T00:46:17;91.80;;;53.20;;
49614;SDS011;35517;45.272;9.984;2023-01-16T00:48:44;91.85;;;53.22;;
49614;SDS011;35517;45.272;9.984;2023-01-16T00:51:10;91.15;;;54.67;;
49614;SDS011;35517;45.272;9.984;2023-01-16T00:53:37;97.32;;;55.80;;
49614;SDS011;35517;45.272;9.984;2023-01-16T00:56:03;87.30;;;56.95;;
49614;SDS011;35517;45.272;9.984;2023-01-16T00:58:30;95.88;;;54.85;;
49614;SDS011;35517;45.272;9.984;2023-01-16T01:00:57;91.72;;;55.50;;
49614;SDS011;35517;45.272;9.984;2023-01-16T01:03:24;94.93;;;57.55;;
49614;SDS011;35517;45.272;9.984;2023-01-16T01:05:50;91.30;;;56.38;;
49614;SDS011;35517;45.272;9.984;2023-01-16T01:08:17;91.50;;;54.22;;
49614;SDS011;35517;45.272;9.984;2023-01-16T01:10:44;98.15;;;58.55;;
49614;SDS011;35517;45.272;9.984;2023-01-16T01:13:10;95.07;;;57.10;;
49614;SDS011;35517;45.272;9.984;2023-01-16T01:15:37;94.75;;;57.80;;
49614;SDS011;35517;45.272;9.984;2023-01-16T01:18:04;94.78;;;54.70;;
49614;SDS011;35517;45.272;9.984;2023-01-16T01:20:30;94.20;;;55.67;;
49614;SDS011;35517;45.272;9.984;2023-01-16T01:22:57;91.82;;;53.75;;
49614;SDS011;35517;45.272;9.984;2023-01-16T01:25:23;88.60;;;54.17;;
49614;SDS011;35517;45.272;9.984;2023-01-16T01:27:50;93.03;;;54.45;;
49614;SDS011;35517;45.272;9.984;2023-01-16T01:30:17;91.43;;;52.20;;
49614;SDS011;35517;45.272;9.984;2023-01-16T01:32:44;90.43;;;53.63;;
49614;SDS011;35517;45.272;9.984;2023-01-16T01:35:11;81.20;;;51.35;;
49614;SDS011;35517;45.272;9.984;2023-01-16T01:37:37;92.72;;;59.13;;
49614;SDS011;35517;45.272;9.984;2023-01-16T01:40:04;95.18;;;55.38;;
49614;SDS011;35517;45.272;9.984;2023-01-16T01:42:38;85.20;;;53.65;;
49614;SDS011;35517;45.272;9.984;2023-01-16T01:45:12;87.03;;;52.88;;
49614;SDS011;35517;45.272;9.984;2023-01-16T01:47:41;82.63;;;52.63;;
49614;SDS011;35517;45.272;9.984;2023-01-16T01:50:25;83.45;;;53.28;;
49614;SDS011;35517;45.272;9.984;2023-01-16T01:55:19;78.22;;;50.67;;
49614;SDS011;35517;45.272;9.984;2023-01-16T01:57:51;82.05;;;54.20;;
49614;SDS011;35517;45.272;9.984;2023-01-16T02:00:22;81.30;;;51.92;;
49614;SDS011;35517;45.272;9.984;2023-01-16T02:02:57;81.78;;;51.00;;
49614;SDS011;35517;45.272;9.984;2023-01-16T02:05:28;82.38;;;52.20;;
49614;SDS011;35517;45.272;9.984;2023-01-16T02:07:55;79.95;;;51.55;;
49614;SDS011;35517;45.272;9.984;2023-01-16T02:10:30;79.22;;;52.92;;
49614;SDS011;35517;45.272;9.984;2023-01-16T02:12:59;78.53;;;50.83;;
49614;SDS011;35517;45.272;9.984;2023-01-16T02:15:26;83.15;;;52.22;;
49614;SDS011;35517;45.272;9.984;2023-01-16T02:17:53;81.47;;;52.72;;
49614;SDS011;35517;45.272;9.984;2023-01-16T02:31:22;89.10;;;53.63;;
49614;SDS011;35517;45.272;9.984;2023-01-16T02:41:54;81.03;;;51.38;;
49614;SDS011;35517;45.272;9.984;2023-01-16T02:46:59;89.05;;;53.55;;
49614;SDS011;35517;45.272;9.984;2023-01-16T02:50:32;84.53;;;50.80;;
49614;SDS011;35517;45.272;9.984;2023-01-16T02:52:31;78.45;;;48.33;;
49614;SDS011;35517;45.272;9.984;2023-01-16T02:55:01;83.50;;;48.40;;
49614;SDS011;35517;45.272;9.984;2023-01-16T02:57:31;80.25;;;49.55;;
49614;SDS011;35517;45.272;9.984;2023-01-16T03:00:00;74.88;;;48.17;;
49614;SDS011;35517;45.272;9.984;2023-01-16T03:02:27;78.00;;;49.65;;
49614;SDS011;35517;45.272;9.984;2023-01-16T03:04:53;80.40;;;49.00;;
49614;SDS011;35517;45.272;9.984;2023-01-16T03:22:52;72.75;;;47.30;;
49614;SDS011;35517;45.272;9.984;2023-01-16T03:25:23;75.13;;;47.67;;
49614;SDS011;35517;45.272;9.984;2023-01-16T03:30:31;78.43;;;48.78;;
49614;SDS011;35517;45.272;9.984;2023-01-16T03:35:57;78.82;;;50.95;;
49614;SDS011;35517;45.272;9.984;2023-01-16T03:38:25;80.38;;;50.58;;
49614;SDS011;35517;45.272;9.984;2023-01-16T03:40:53;82.25;;;53.50;;
49614;SDS011;35517;45.272;9.984;2023-01-16T03:43:22;85.78;;;53.22;;
49614;SDS011;35517;45.272;9.984;2023-01-16T03:51:05;85.50;;;51.70;;
49614;SDS011;35517;45.272;9.984;2023-01-16T03:53:35;87.55;;;53.97;;
49614;SDS011;35517;45.272;9.984;2023-01-16T03:56:13;85.07;;;52.88;;
49614;SDS011;35517;45.272;9.984;2023-01-16T03:58:44;83.00;;;50.45;;
49614;SDS011;35517;45.272;9.984;2023-01-16T04:09:08;87.00;;;53.58;;
49614;SDS011;35517;45.272;9.984;2023-01-16T04:11:36;89.97;;;54.00;;
49614;SDS011;35517;45.272;9.984;2023-01-16T04:14:05;86.18;;;55.08;;
49614;SDS011;35517;45.272;9.984;2023-01-16T04:16:32;87.18;;;52.38;;
49614;SDS011;35517;45.272;9.984;2023-01-16T04:18:59;85.55;;;56.15;;
49614;SDS011;35517;45.272;9.984;2023-01-16T04:21:26;86.35;;;55.53;;
49614;SDS011;35517;45.272;9.984;2023-01-16T04:23:54;86.47;;;53.70;;
49614;SDS011;35517;45.272;9.984;2023-01-16T04:26:22;88.25;;;53.28;;
49614;SDS011;35517;45.272;9.984;2023-01-16T04:28:48;84.47;;;52.65;;
49614;SDS011;35517;45.272;9.984;2023-01-16T04:31:23;81.53;;;52.10;;
49614;SDS011;35517;45.272;9.984;2023-01-16T04:33:50;80.28;;;53.53;;
49614;SDS011;35517;45.272;9.984;2023-01-16T04:36:16;83.63;;;52.88;;
49614;SDS011;35517;45.272;9.984;2023-01-16T04:38:43;80.20;;;51.25;;
49614;SDS011;35517;45.272;9.984;2023-01-16T04:41:10;74.25;;;50.45;;
49614;SDS011;35517;45.272;9.984;2023-01-16T04:43:36;77.70;;;51.70;;
49614;SDS011;35517;45.272;9.984;2023-01-16T04:46:03;75.35;;;50.20;;
49614;SDS011;35517;45.272;9.984;2023-01-16T04:48:30;83.20;;;53.25;;
49614;SDS011;35517;45.272;9.984;2023-01-16T04:50:56;83.32;;;51.97;;
49614;SDS011;35517;45.272;9.984;2023-01-16T04:53:23;76.40;;;47.05;;
49614;SDS011;35517;45.272;9.984;2023-01-16T04:55:49;83.13;;;51.42;;
49614;SDS011;35517;45.272;9.984;2023-01-16T04:58:16;73.97;;;47.25;;
49614;SDS011;35517;45.272;9.984;2023-01-16T05:00:42;79.20;;;49.58;;
49614;SDS011;35517;45.272;9.984;2023-01-16T05:03:09;76.80;;;48.03;;
49614;SDS011;35517;45.272;9.984;2023-01-16T05:05:37;92.18;;;49.80;;
49614;SDS011;35517;45.272;9.984;2023-01-16T05:08:04;82.53;;;48.03;;
49614;SDS011;35517;45.272;9.984;2023-01-16T05:10:44;91.30;;;50.38;;
49614;SDS011;35517;45.272;9.984;2023-01-16T05:13:10;83.75;;;50.72;;
49614;SDS011;35517;45.272;9.984;2023-01-16T05:15:37;95.28;;;50.10;;
49614;SDS011;35517;45.272;9.984;2023-01-16T05:18:03;87.00;;;49.13;;
49614;SDS011;35517;45.272;9.984;2023-01-16T05:20:31;96.10;;;51.08;;
49614;SDS011;35517;45.272;9.984;2023-01-16T05:22:57;95.80;;;51.45;;
49614;SDS011;35517;45.272;9.984;2023-01-16T05:25:24;96.70;;;51.35;;
49614;SDS011;35517;45.272;9.984;2023-01-16T05:27:50;98.43;;;51.65;;
49614;SDS011;35517;45.272;9.984;2023-01-16T05:30:17;92.88;;;50.30;;
49614;SDS011;35517;45.272;9.984;2023-01-16T05:32:44;100.18;;;52.05;;
49614;SDS011;35517;45.272;9.984;2023-01-16T05:35:10;102.78;;;52.30;;
49614;SDS011;35517;45.272;9.984;2023-01-16T05:37:37;102.47;;;53.90;;
49614;SDS011;35517;45.272;9.984;2023-01-16T05:40:04;100.88;;;51.75;;
49614;SDS011;35517;45.272;9.984;2023-01-16T05:42:30;90.25;;;49.50;;
49614;SDS011;35517;45.272;9.984;2023-01-16T05:44:57;98.70;;;49.10;;
49614;SDS011;35517;45.272;9.984;2023-01-16T05:47:24;95.15;;;50.58;;
49614;SDS011;35517;45.272;9.984;2023-01-16T05:49:50;94.50;;;50.88;;
49614;SDS011;35517;45.272;9.984;2023-01-16T05:52:17;103.90;;;51.20;;
49614;SDS011;35517;45.272;9.984;2023-01-16T05:54:43;98.20;;;53.38;;
49614;SDS011;35517;45.272;9.984;2023-01-16T05:57:10;94.07;;;52.80;;
49614;SDS011;35517;45.272;9.984;2023-01-16T05:59:38;93.78;;;51.38;;
49614;SDS011;35517;45.272;9.984;2023-01-16T06:02:07;93.47;;;50.35;;
49614;SDS011;35517;45.272;9.984;2023-01-16T06:04:34;99.88;;;49.95;;
49614;SDS011;35517;45.272;9.984;2023-01-16T06:07:01;96.00;;;50.58;;
49614;SDS011;35517;45.272;9.984;2023-01-16T06:09:27;100.35;;;53.10;;
49614;SDS011;35517;45.272;9.984;2023-01-16T06:11:54;90.95;;;51.10;;
49614;SDS011;35517;45.272;9.984;2023-01-16T06:14:20;95.25;;;49.47;;
49614;SDS011;35517;45.272;9.984;2023-01-16T06:16:47;104.32;;;52.03;;
49614;SDS011;35517;45.272;9.984;2023-01-16T06:19:13;99.60;;;50.75;;
49614;SDS011;35517;45.272;9.984;2023-01-16T06:21:40;95.00;;;47.33;;
49614;SDS011;35517;45.272;9.984;2023-01-16T06:24:07;97.93;;;51.17;;
49614;SDS011;35517;45.272;9.984;2023-01-16T06:26:33;92.70;;;46.45;;
49614;SDS011;35517;45.272;9.984;2023-01-16T06:29:00;91.70;;;46.92;;
49614;SDS011;35517;45.272;9.984;2023-01-16T06:31:26;91.22;;;44.97;;
49614;SDS011;35517;45.272;9.984;2023-01-16T06:33:53;94.90;;;48.53;;
49614;SDS011;35517;45.272;9.984;2023-01-16T06:36:20;82.53;;;43.88;;
49614;SDS011;35517;45.272;9.984;2023-01-16T06:38:47;91.15;;;44.92;;
49614;SDS011;35517;45.272;9.984;2023-01-16T06:41:13;80.50;;;43.10;;
49614;SDS011;35517;45.272;9.984;2023-01-16T06:43:40;92.47;;;45.95;;
49614;SDS011;35517;45.272;9.984;2023-01-16T06:48:52;88.75;;;45.30;;
49614;SDS011;35517;45.272;9.984;2023-01-16T06:51:18;85.63;;;45.40;;
49614;SDS011;35517;45.272;9.984;2023-01-16T06:53:46;90.03;;;44.00;;
49614;SDS011;35517;45.272;9.984;2023-01-16T06:56:12;87.90;;;43.67;;
49614;SDS011;35517;45.272;9.984;2023-01-16T06:58:39;84.22;;;46.15;;
49614;SDS011;35517;45.272;9.984;2023-01-16T07:01:05;84.22;;;42.13;;
49614;SDS011;35517;45.272;9.984;2023-01-16T07:03:32;77.97;;;41.00;;
49614;SDS011;35517;45.272;9.984;2023-01-16T07:05:59;82.43;;;42.88;;
49614;SDS011;35517;45.272;9.984;2023-01-16T07:08:25;81.65;;;41.80;;
49614;SDS011;35517;45.272;9.984;2023-01-16T07:10:52;87.82;;;42.47;;
49614;SDS011;35517;45.272;9.984;2023-01-16T07:13:19;86.80;;;42.25;;
49614;SDS011;35517;45.272;9.984;2023-01-16T07:18:38;74.82;;;38.65;;
49614;SDS011;35517;45.272;9.984;2023-01-16T07:21:24;89.70;;;42.83;;
49614;SDS011;35517;45.272;9.984;2023-01-16T07:24:10;85.38;;;37.05;;
49614;SDS011;35517;45.272;9.984;2023-01-16T07:26:40;92.65;;;40.97;;
49614;SDS011;35517;45.272;9.984;2023-01-16T07:29:08;85.25;;;40.03;;
49614;SDS011;35517;45.272;9.984;2023-01-16T07:31:35;87.57;;;42.75;;
49614;SDS011;35517;45.272;9.984;2023-01-16T07:34:02;109.35;;;42.47;;
49614;SDS011;35517;45.272;9.984;2023-01-16T07:36:28;152.30;;;43.92;;
49614;SDS011;35517;45.272;9.984;2023-01-16T07:45:41;94.63;;;39.85;;
49614;SDS011;35517;45.272;9.984;2023-01-16T07:48:09;101.47;;;40.67;;
49614;SDS011;35517;45.272;9.984;2023-01-16T07:50:36;110.50;;;40.45;;
49614;SDS011;35517;45.272;9.984;2023-01-16T07:53:02;100.13;;;40.78;;
49614;SDS011;35517;45.272;9.984;2023-01-16T07:55:29;123.25;;;42.65;;
49614;SDS011;35517;45.272;9.984;2023-01-16T07:57:56;186.45;;;44.58;;
49614;SDS011;35517;45.272;9.984;2023-01-16T08:00:22;127.57;;;41.95;;
49614;SDS011;35517;45.272;9.984;2023-01-16T08:02:49;125.55;;;41.55;;
49614;SDS011;35517;45.272;9.984;2023-01-16T08:05:15;146.43;;;41.20;;
49614;SDS011;35517;45.272;9.984;2023-01-16T08:07:43;103.20;;;39.38;;
49614;SDS011;35517;45.272;9.984;2023-01-16T08:10:10;145.23;;;36.80;;
49614;SDS011;35517;45.272;9.984;2023-01-16T08:12:37;199.02;;;42.42;;
49614;SDS011;35517;45.272;9.984;2023-01-16T08:15:04;195.75;;;44.45;;
49614;SDS011;35517;45.272;9.984;2023-01-16T08:17:31;236.23;;;45.35;;
49614;SDS011;35517;45.272;9.984;2023-01-16T08:19:58;334.80;;;53.33;;
49614;SDS011;35517;45.272;9.984;2023-01-16T08:22:24;185.90;;;42.30;;
49614;SDS011;35517;45.272;9.984;2023-01-16T08:24:51;148.13;;;39.55;;
49614;SDS011;35517;45.272;9.984;2023-01-16T08:27:18;159.77;;;39.75;;
49614;SDS011;35517;45.272;9.984;2023-01-16T08:29:44;113.82;;;38.60;;
49614;SDS011;35517;45.272;9.984;2023-01-16T08:32:11;108.80;;;36.03;;
49614;SDS011;35517;45.272;9.984;2023-01-16T08:34:38;142.07;;;38.70;;
49614;SDS011;35517;45.272;9.984;2023-01-16T08:37:04;185.23;;;38.92;;
49614;SDS011;35517;45.272;9.984;2023-01-16T08:39:32;205.68;;;42.35;;
49614;SDS011;35517;45.272;9.984;2023-01-16T08:41:59;148.50;;;38.92;;
49614;SDS011;35517;45.272;9.984;2023-01-16T08:44:44;180.98;;;41.00;;
49614;SDS011;35517;45.272;9.984;2023-01-16T08:47:29;180.30;;;39.60;;
49614;SDS011;35517;45.272;9.984;2023-01-16T08:50:16;108.97;;;33.92;;
49614;SDS011;35517;45.272;9.984;2023-01-16T08:53:02;324.98;;;47.22;;
49614;SDS011;35517;45.272;9.984;2023-01-16T08:55:28;177.48;;;44.92;;
49614;SDS011;35517;45.272;9.984;2023-01-16T08:57:55;188.65;;;39.97;;
49614;SDS011;35517;45.272;9.984;2023-01-16T09:00:25;184.35;;;42.92;;
49614;SDS011;35517;45.272;9.984;2023-01-16T09:02:51;145.32;;;40.90;;
49614;SDS011;35517;45.272;9.984;2023-01-16T09:05:20;306.27;;;53.08;;
49614;SDS011;35517;45.272;9.984;2023-01-16T09:07:47;111.93;;;36.10;;
49614;SDS011;35517;45.272;9.984;2023-01-16T09:10:14;99.78;;;31.95;;
49614;SDS011;35517;45.272;9.984;2023-01-16T09:12:40;108.45;;;31.70;;
49614;SDS011;35517;45.272;9.984;2023-01-16T09:15:25;97.75;;;30.77;;
49614;SDS011;35517;45.272;9.984;2023-01-16T09:17:52;91.18;;;32.50;;
49614;SDS011;35517;45.272;9.984;2023-01-16T09:20:19;109.15;;;33.47;;
49614;SDS011;35517;45.272;9.984;2023-01-16T09:22:45;82.30;;;33.00;;
49614;SDS011;35517;45.272;9.984;2023-01-16T09:25:12;131.50;;;32.17;;
49614;SDS011;35517;45.272;9.984;2023-01-16T09:27:38;115.68;;;35.95;;
49614;SDS011;35517;45.272;9.984;2023-01-16T09:30:05;127.28;;;38.85;;
49614;SDS011;35517;45.272;9.984;2023-01-16T09:32:32;101.47;;;34.95;;
49614;SDS011;35517;45.272;9.984;2023-01-16T09:35:04;80.00;;;29.10;;
49614;SDS011;35517;45.272;9.984;2023-01-16T09:37:31;94.97;;;30.13;;
49614;SDS011;35517;45.272;9.984;2023-01-16T09:39:57;74.60;;;27.52;;
49614;SDS011;35517;45.272;9.984;2023-01-16T09:42:30;129.98;;;35.53;;
49614;SDS011;35517;45.272;9.984;2023-01-16T09:45:18;87.65;;;25.05;;
49614;SDS011;35517;45.272;9.984;2023-01-16T09:47:46;144.77;;;34.20;;
49614;SDS011;35517;45.272;9.984;2023-01-16T09:50:28;108.18;;;35.28;;
49614;SDS011;35517;45.272;9.984;2023-01-16T09:52:56;105.32;;;31.23;;
49614;SDS011;35517;45.272;9.984;2023-01-16T09:55:44;160.45;;;32.90;;
49614;SDS011;35517;45.272;9.984;2023-01-16T09:58:39;101.13;;;35.80;;
49614;SDS011;35517;45.272;9.984;2023-01-16T10:01:08;100.25;;;33.47;;
49614;SDS011;35517;45.272;9.984;2023-01-16T10:03:35;111.88;;;33.38;;
49614;SDS011;35517;45.272;9.984;2023-01-16T10:06:13;81.75;;;33.58;;
49614;SDS011;35517;45.272;9.984;2023-01-16T10:12:03;49.50;;;21.85;;
49614;SDS011;35517;45.272;9.984;2023-01-16T10:16:56;50.00;;;23.70;;
49614;SDS011;35517;45.272;9.984;2023-01-16T10:22:20;47.38;;;23.52;;
49614;SDS011;35517;45.272;9.984;2023-01-16T10:30:17;28.58;;;16.63;;
49614;SDS011;35517;45.272;9.984;2023-01-16T10:35:33;28.27;;;13.95;;
49614;SDS011;35517;45.272;9.984;2023-01-16T10:40:53;27.98;;;16.02;;
49614;SDS011;35517;45.272;9.984;2023-01-16T10:43:34;28.13;;;15.70;;
49614;SDS011;35517;45.272;9.984;2023-01-16T10:46:21;23.88;;;13.13;;
49614;SDS011;35517;45.272;9.984;2023-01-16T10:49:09;35.88;;;19.63;;
49614;SDS011;35517;45.272;9.984;2023-01-16T10:51:51;32.95;;;15.90;;
49614;SDS011;35517;45.272;9.984;2023-01-16T10:54:18;33.38;;;17.92;;
49614;SDS011;35517;45.272;9.984;2023-01-16T10:56:44;37.22;;;19.48;;
49614;SDS011;35517;45.272;9.984;2023-01-16T10:59:11;49.72;;;24.42;;
49614;SDS011;35517;45.272;9.984;2023-01-16T11:01:39;35.03;;;18.30;;
49614;SDS011;35517;45.272;9.984;2023-01-16T11:04:09;39.47;;;19.23;;
49614;SDS011;35517;45.272;9.984;2023-01-16T11:06:36;54.10;;;26.65;;
49614;SDS011;35517;45.272;9.984;2023-01-16T11:09:07;57.30;;;27.70;;
49614;SDS011;35517;45.272;9.984;2023-01-16T11:11:42;61.15;;;29.65;;
49614;SDS011;35517;45.272;9.984;2023-01-16T11:20:02;65.75;;;28.38;;
49614;SDS011;35517;45.272;9.984;2023-01-16T11:22:29;70.90;;;29.90;;
49614;SDS011;35517;45.272;9.984;2023-01-16T11:24:56;56.55;;;27.23;;
49614;SDS011;35517;45.272;9.984;2023-01-16T11:27:25;67.30;;;26.90;;
49614;SDS011;35517;45.272;9.984;2023-01-16T11:29:53;46.60;;;21.52;;
49614;SDS011;35517;45.272;9.984;2023-01-16T11:32:20;57.17;;;24.23;;
49614;SDS011;35517;45.272;9.984;2023-01-16T11:34:52;56.30;;;25.30;;
49614;SDS011;35517;45.272;9.984;2023-01-16T11:37:19;61.15;;;27.00;;
49614;SDS011;35517;45.272;9.984;2023-01-16T11:39:47;65.68;;;25.58;;
49614;SDS011;35517;45.272;9.984;2023-01-16T11:45:22;45.25;;;21.17;;
49614;SDS011;35517;45.272;9.984;2023-01-16T11:48:08;55.55;;;25.88;;
49614;SDS011;35517;45.272;9.984;2023-01-16T11:50:51;49.70;;;20.15;;
49614;SDS011;35517;45.272;9.984;2023-01-16T11:53:18;53.80;;;21.35;;
49614;SDS011;35517;45.272;9.984;2023-01-16T11:56:31;41.33;;;21.35;;
49614;SDS011;35517;45.272;9.984;2023-01-16T12:01:19;56.17;;;21.65;;
49614;SDS011;35517;45.272;9.984;2023-01-16T12:04:13;63.05;;;22.90;;
49614;SDS011;35517;45.272;9.984;2023-01-16T12:09:17;75.85;;;22.38;;
49614;SDS011;35517;45.272;9.984;2023-01-16T12:15:02;53.47;;;22.90;;
49614;SDS011;35517;45.272;9.984;2023-01-16T12:17:38;63.35;;;19.63;;
49614;SDS011;35517;45.272;9.984;2023-01-16T12:20:10;53.08;;;23.67;;
49614;SDS011;35517;45.272;9.984;2023-01-16T12:35:41;53.65;;;24.10;;
49614;SDS011;35517;45.272;9.984;2023-01-16T12:38:14;48.65;;;19.75;;
49614;SDS011;35517;45.272;9.984;2023-01-16T12:40:59;57.78;;;24.15;;
49614;SDS011;35517;45.272;9.984;2023-01-16T12:46:16;51.67;;;22.35;;
49614;SDS011;35517;45.272;9.984;2023-01-16T12:48:51;59.60;;;26.60;;
49614;SDS011;35517;45.272;9.984;2023-01-16T12:59:30;52.83;;;23.90;;
49614;SDS011;35517;45.272;9.984;2023-01-16T13:04:37;49.30;;;24.05;;
49614;SDS011;35517;45.272;9.984;2023-01-16T13:07:06;47.15;;;22.77;;
49614;SDS011;35517;45.272;9.984;2023-01-16T13:09:35;41.78;;;18.73;;
49614;SDS011;35517;45.272;9.984;2023-01-16T13:12:05;48.22;;;24.23;;
49614;SDS011;35517;45.272;9.984;2023-01-16T13:14:55;43.75;;;21.80;;
49614;SDS011;35517;45.272;9.984;2023-01-16T13:17:23;44.90;;;22.40;;
49614;SDS011;35517;45.272;9.984;2023-01-16T13:19:52;44.90;;;23.25;;
49614;SDS011;35517;45.272;9.984;2023-01-16T13:22:30;44.15;;;20.95;;
49614;SDS011;35517;45.272;9.984;2023-01-16T13:25:02;42.97;;;21.02;;
49614;SDS011;35517;45.272;9.984;2023-01-16T13:27:44;52.42;;;23.40;;
49614;SDS011;35517;45.272;9.984;2023-01-16T13:30:13;48.80;;;22.67;;
49614;SDS011;35517;45.272;9.984;2023-01-16T13:33:03;43.35;;;20.20;;
49614;SDS011;35517;45.272;9.984;2023-01-16T13:38:44;42.53;;;21.30;;
49614;SDS011;35517;45.272;9.984;2023-01-16T13:41:14;40.58;;;19.80;;
49614;SDS011;35517;45.272;9.984;2023-01-16T13:46:36;39.65;;;20.05;;
49614;SDS011;35517;45.272;9.984;2023-01-16T13:49:03;40.88;;;18.95;;
49614;SDS011;35517;45.272;9.984;2023-01-16T13:51:30;41.35;;;19.58;;
49614;SDS011;35517;45.272;9.984;2023-01-16T13:53:58;38.88;;;21.10;;
49614;SDS011;35517;45.272;9.984;2023-01-16T13:56:31;35.33;;;18.13;;
49614;SDS011;35517;45.272;9.984;2023-01-16T13:59:05;42.72;;;19.38;;
49614;SDS011;35517;45.272;9.984;2023-01-16T14:01:52;37.45;;;19.42;;
49614;SDS011;35517;45.272;9.984;2023-01-16T14:12:23;32.80;;;17.13;;
49614;SDS011;35517;45.272;9.984;2023-01-16T14:18:19;30.30;;;17.13;;
49614;SDS011;35517;45.272;9.984;2023-01-16T14:23:17;33.72;;;17.25;;
49614;SDS011;35517;45.272;9.984;2023-01-16T14:26:03;29.83;;;15.38;;
49614;SDS011;35517;45.272;9.984;2023-01-16T14:28:31;33.33;;;18.45;;
49614;SDS011;35517;45.272;9.984;2023-01-16T14:30:59;35.97;;;18.38;;
49614;SDS011;35517;45.272;9.984;2023-01-16T14:33:25;31.80;;;18.63;;
49614;SDS011;35517;45.272;9.984;2023-01-16T14:35:54;34.03;;;17.27;;
49614;SDS011;35517;45.272;9.984;2023-01-16T14:38:21;32.17;;;16.27;;
49614;SDS011;35517;45.272;9.984;2023-01-16T14:40:59;35.20;;;17.40;;
49614;SDS011;35517;45.272;9.984;2023-01-16T14:44:20;38.80;;;19.83;;
49614;SDS011;35517;45.272;9.984;2023-01-16T14:50:16;39.38;;;19.60;;
49614;SDS011;35517;45.272;9.984;2023-01-16T14:55:56;39.13;;;18.90;;
49614;SDS011;35517;45.272;9.984;2023-01-16T14:58:26;35.40;;;18.75;;
49614;SDS011;35517;45.272;9.984;2023-01-16T15:00:56;39.27;;;18.87;;
49614;SDS011;35517;45.272;9.984;2023-01-16T15:03:43;38.47;;;20.23;;
49614;SDS011;35517;45.272;9.984;2023-01-16T15:06:11;38.13;;;20.77;;
49614;SDS011;35517;45.272;9.984;2023-01-16T15:08:39;37.72;;;20.02;;
49614;SDS011;35517;45.272;9.984;2023-01-16T15:11:15;40.70;;;20.48;;
49614;SDS011;35517;45.272;9.984;2023-01-16T15:14:05;37.28;;;19.80;;
49614;SDS011;35517;45.272;9.984;2023-01-16T15:22:50;39.60;;;20.83;;
49614;SDS011;35517;45.272;9.984;2023-01-16T15:30:45;36.75;;;18.70;;
49614;SDS011;35517;45.272;9.984;2023-01-16T15:33:27;34.33;;;17.50;;
49614;SDS011;35517;45.272;9.984;2023-01-16T15:38:37;39.90;;;18.90;;
49614;SDS011;35517;45.272;9.984;2023-01-16T15:41:04;32.30;;;17.48;;
49614;SDS011;35517;45.272;9.984;2023-01-16T15:43:30;29.45;;;17.35;;
49614;SDS011;35517;45.272;9.984;2023-01-16T15:46:22;33.58;;;17.98;;
49614;SDS011;35517;45.272;9.984;2023-01-16T15:49:12;37.20;;;18.20;;
49614;SDS011;35517;45.272;9.984;2023-01-16T15:51:40;37.30;;;20.85;;
49614;SDS011;35517;45.272;9.984;2023-01-16T15:54:11;33.33;;;16.58;;
49614;SDS011;35517;45.272;9.984;2023-01-16T15:56:43;32.17;;;17.55;;
49614;SDS011;35517;45.272;9.984;2023-01-16T15:59:24;28.70;;;16.27;;
49614;SDS011;35517;45.272;9.984;2023-01-16T16:01:51;34.72;;;16.63;;
49614;SDS011;35517;45.272;9.984;2023-01-16T16:04:19;29.75;;;15.30;;
49614;SDS011;35517;45.272;9.984;2023-01-16T16:06:46;34.92;;;17.13;;
49614;SDS011;35517;45.272;9.984;2023-01-16T16:09:15;31.85;;;17.50;;
49614;SDS011;35517;45.272;9.984;2023-01-16T16:11:43;36.60;;;16.92;;
49614;SDS011;35517;45.272;9.984;2023-01-16T16:14:30;33.40;;;16.27;;
49614;SDS011;35517;45.272;9.984;2023-01-16T16:17:22;33.45;;;18.73;;
49614;SDS011;35517;45.272;9.984;2023-01-16T16:22:55;36.92;;;18.67;;
49614;SDS011;35517;45.272;9.984;2023-01-16T16:25:28;33.70;;;18.13;;
49614;SDS011;35517;45.272;9.984;2023-01-16T16:30:24;34.08;;;18.77;;
49614;SDS011;35517;45.272;9.984;2023-01-16T16:32:51;34.08;;;18.38;;
49614;SDS011;35517;45.272;9.984;2023-01-16T16:35:29;31.27;;;18.50;;
49614;SDS011;35517;45.272;9.984;2023-01-16T16:37:58;38.58;;;20.90;;
49614;SDS011;35517;45.272;9.984;2023-01-16T16:40:25;31.65;;;18.25;;
49614;SDS011;35517;45.272;9.984;2023-01-16T16:42:52;30.48;;;17.60;;
49614;SDS011;35517;45.272;9.984;2023-01-16T16:45:31;35.88;;;18.50;;
49614;SDS011;35517;45.272;9.984;2023-01-16T16:50:48;34.13;;;17.67;;
49614;SDS011;35517;45.272;9.984;2023-01-16T16:53:16;41.42;;;21.02;;
49614;SDS011;35517;45.272;9.984;2023-01-16T16:55:49;32.90;;;18.38;;
49614;SDS011;35517;45.272;9.984;2023-01-16T16:58:17;31.60;;;18.15;;
49614;SDS011;35517;45.272;9.984;2023-01-16T17:00:47;36.47;;;18.42;;
49614;SDS011;35517;45.272;9.984;2023-01-16T17:03:20;34.63;;;18.70;;
49614;SDS011;35517;45.272;9.984;2023-01-16T17:05:47;43.20;;;21.27;;
49614;SDS011;35517;45.272;9.984;2023-01-16T17:08:21;41.45;;;21.98;;
49614;SDS011;35517;45.272;9.984;2023-01-16T17:10:53;41.72;;;22.92;;
49614;SDS011;35517;45.272;9.984;2023-01-16T17:13:20;44.70;;;22.70;;
49614;SDS011;35517;45.272;9.984;2023-01-16T17:15:48;35.45;;;20.55;;
49614;SDS011;35517;45.272;9.984;2023-01-16T17:18:15;36.55;;;21.52;;
49614;SDS011;35517;45.272;9.984;2023-01-16T17:20:42;41.55;;;22.73;;
49614;SDS011;35517;45.272;9.984;2023-01-16T17:23:10;39.63;;;25.05;;
49614;SDS011;35517;45.272;9.984;2023-01-16T17:25:37;42.33;;;26.92;;
49614;SDS011;35517;45.272;9.984;2023-01-16T17:28:04;30.02;;;17.77;;
49614;SDS011;35517;45.272;9.984;2023-01-16T17:30:30;28.80;;;17.60;;
49614;SDS011;35517;45.272;9.984;2023-01-16T17:32:59;30.08;;;17.95;;
49614;SDS011;35517;45.272;9.984;2023-01-16T17:35:26;31.38;;;16.65;;
49614;SDS011;35517;45.272;9.984;2023-01-16T17:37:52;30.98;;;17.08;;
49614;SDS011;35517;45.272;9.984;2023-01-16T17:40:19;30.55;;;17.10;;